Bellflower, California
Current Conditions -  °F | °C
As of 10:53 PM on Saturday 25 Oct 2014 (Local Time) from KLGB Reporting Station
Clear Clear  
Wind Chill: 69°   Ceiling: Unl
Heat Index: 69°   Visibility: 10mi
Dew Point: 62°   Wind: 6mph
Humidity: 78%   Direction: 260°W
Pressure: 30.01"   Gusts: NA
Location:  33.88°N, 118.12°W
Report Text: KLGB 260553Z 26005KT 10SM CLR 21/17 A3001 RMK AO2 SLP162 T02060167 10239 20206 52004
Loading
Personal Weather Stations






























Interactive Weather Map
Tropical Storm Tracking
New forecast layout! Learn more

10-Day Weather Forecast

Advertisements
Track Severe Weather on mobile